Weather History for Erie, CO

Change the Weather History Date:

Wednesday, February 22, 2012

  Actual Average (KBJC) Record (KBJC)
Temperature  
Mean Temperature 48 °F -  
Max Temperature 55 °F 43 °F 62 °F (1991)
Min Temperature 42 °F 24 °F 0 °F (1986)
Degree Days  
Heating Degree Days 16    
Moisture  
Dew Point 23 °F    
Average Humidity 36    
Maximum Humidity 49    
Minimum Humidity 26    
Precipitation  
Precipitation 0.00 in - - ()
Sea Level Pressure  
Sea Level Pressure 29.61 in    
Wind  
Wind Speed 18 mph (West)    
Max Wind Speed 39 mph    
Max Gust Speed 64 mph    
Visibility 10 miles    
Events      
Averages and records for this station are not official NWS values.
T = Trace of Precipitation, MM = Missing Value Source: NWS Daily Summary

Daily Weather History Graph

Daily Weather History Graph

Search for Another Location

Airport:

Trip Planner

Search our weather history database for the weather conditions in past years. The results will help you decide how hot, cold, wet, or windy it might be!

Date:

Astronomy

Feb. 22, 2012 Rise Set
Actual Time 6:44 AM MST 5:43 PM MST
Civil Twilight 6:16 AM MST 6:11 PM MST
Nautical Twilight 5:45 AM MST 6:42 PM MST
Astronomical Twilight 5:14 AM MST 7:14 PM MST
Moon 6:43 AM MST (2/22) 6:53 PM MST (2/22)
Length of Visible Light 11h 54m
Length of Day
10h 59m
New Moon, 1% of the Moon is Illuminated
Feb 22
New Moon
Feb 29
First Quarter
Mar 8
Full
Mar 14
Last Quarter
Mar 22
New

Hourly Weather History & Observations

Time (MST) Temp. Windchill Dew Point Humidity Pressure Visibility Wind Dir Wind Speed Gust Speed Precip Events Conditions
12:17 AM 46.4 °F 39.8 °F 19.4 °F 34% 29.73 in 10.0 mi West 16.1 mph 23.0 mph N/A   Unknown
12:37 AM 46.4 °F 41.9 °F 19.4 °F 34% 29.73 in 10.0 mi West 9.2 mph 19.6 mph N/A   Unknown
12:57 AM 46.4 °F 41.5 °F 21.2 °F 37% 29.73 in 10.0 mi West 10.4 mph 31.1 mph N/A   Unknown
1:17 AM 44.6 °F 40.7 °F 23.0 °F 43% 29.72 in 10.0 mi NW 6.9 mph 19.6 mph N/A   Unknown
1:37 AM 42.8 °F 38.6 °F 24.8 °F 49% 29.72 in 10.0 mi NNW 6.9 mph - N/A   Unknown
1:57 AM 44.6 °F 40.7 °F 23.0 °F 43% 29.72 in 10.0 mi NNW 6.9 mph - N/A   Unknown
2:17 AM 42.8 °F 35.8 °F 24.8 °F 49% 29.71 in 10.0 mi West 13.8 mph 17.3 mph N/A   Unknown
2:37 AM 44.6 °F 37.4 °F 24.8 °F 46% 29.70 in 10.0 mi WNW 16.1 mph 25.3 mph N/A   Unknown
2:57 AM 44.6 °F 36.6 °F 24.8 °F 46% 29.71 in 10.0 mi WNW 19.6 mph 24.2 mph N/A   Unknown
3:17 AM 44.6 °F 36.4 °F 24.8 °F 46% 29.69 in 10.0 mi West 20.7 mph 29.9 mph N/A   Unknown
3:37 AM 46.4 °F 38.3 °F 23.0 °F 40% 29.68 in 10.0 mi West 23.0 mph 36.8 mph N/A   Unknown
3:57 AM 44.6 °F 36.6 °F 26.6 °F 49% 29.68 in 10.0 mi West 19.6 mph 27.6 mph N/A   Unknown
4:17 AM 44.6 °F 37.2 °F 24.8 °F 46% 29.69 in 10.0 mi WNW 17.3 mph 24.2 mph N/A   Unknown
4:37 AM 44.6 °F 37.2 °F 26.6 °F 49% 29.70 in 10.0 mi WNW 17.3 mph 20.7 mph N/A   Unknown
5:37 AM 44.6 °F 34.7 °F 24.8 °F 46% 29.70 in 10.0 mi West 29.9 mph 39.1 mph N/A   Unknown
5:57 AM 46.4 °F 39.5 °F 23.0 °F 40% 29.70 in 10.0 mi West 17.3 mph 25.3 mph N/A   Unknown
6:17 AM 46.4 °F 40.1 °F 23.0 °F 40% 29.69 in 10.0 mi West 15.0 mph 28.8 mph N/A   Unknown
6:37 AM 44.6 °F 39.2 °F 24.8 °F 46% 29.65 in 10.0 mi WSW 10.4 mph 20.7 mph N/A   Unknown
6:57 AM 46.4 °F 38.1 °F 23.0 °F 40% 29.66 in 10.0 mi West 24.2 mph 33.4 mph N/A   Unknown
7:17 AM 46.4 °F 39.0 °F 23.0 °F 40% 29.66 in 10.0 mi West 19.6 mph 31.1 mph N/A   Unknown
7:37 AM 46.4 °F 39.2 °F 23.0 °F 40% 29.65 in 10.0 mi West 18.4 mph 29.9 mph N/A   Unknown
7:57 AM 46.4 °F 39.8 °F 24.8 °F 43% 29.67 in 10.0 mi West 16.1 mph 21.9 mph N/A   Unknown
8:13 AM 46.4 °F 41.5 °F 26.6 °F 46% 29.67 in 10.0 mi WNW 10.4 mph - N/A   Unknown
8:57 AM - - - N/A% 29.65 in - West 21.9 mph - N/A   Unknown
9:17 AM 50.0 °F - 23.0 °F 35% 29.64 in 10.0 mi West 19.6 mph 32.2 mph N/A   Unknown
9:37 AM 50.0 °F - 23.0 °F 35% 29.64 in 10.0 mi West 24.2 mph 33.4 mph N/A   Unknown
9:57 AM 51.8 °F - 23.0 °F 33% 29.67 in 10.0 mi West 23.0 mph 34.5 mph N/A   Unknown
10:17 AM 50.0 °F - 26.6 °F 40% 29.67 in 10.0 mi West 19.6 mph 26.5 mph N/A   Unknown
10:37 AM 51.8 °F - 23.0 °F 33% 29.67 in 10.0 mi West 26.5 mph 33.4 mph N/A   Unknown
10:57 AM 50.0 °F - 24.8 °F 37% 29.66 in 10.0 mi West 21.9 mph 31.1 mph N/A   Unknown
11:17 AM 50.0 °F - 24.8 °F 37% 29.69 in 10.0 mi West 18.4 mph 27.6 mph N/A   Unknown
11:37 AM 51.8 °F - 23.0 °F 33% 29.68 in 10.0 mi West 25.3 mph 35.7 mph N/A   Unknown
11:57 AM 50.0 °F - 23.0 °F 35% 29.68 in 10.0 mi WNW 24.2 mph 42.6 mph N/A   Unknown
12:17 PM 51.8 °F - 23.0 °F 33% 29.64 in 10.0 mi WNW 26.5 mph 44.9 mph N/A   Unknown
12:37 PM 51.8 °F - 24.8 °F 35% 29.60 in 10.0 mi West 18.4 mph 40.3 mph N/A   Unknown
12:57 PM 51.8 °F - 23.0 °F 33% 29.62 in 10.0 mi NW 20.7 mph 36.8 mph N/A   Unknown
1:17 PM 51.8 °F - 24.8 °F 35% 29.59 in 10.0 mi West 26.5 mph 35.7 mph N/A   Unknown
1:37 PM 53.6 °F - 24.8 °F 33% 29.57 in 10.0 mi West 18.4 mph 29.9 mph N/A   Unknown
1:57 PM 53.6 °F - 23.0 °F 30% 29.58 in 10.0 mi NW 15.0 mph 23.0 mph N/A   Unknown
2:17 PM 53.6 °F - 23.0 °F 30% 29.56 in 10.0 mi West 13.8 mph 24.2 mph N/A   Unknown
2:37 PM 55.4 °F - 21.2 °F 26% 29.55 in 10.0 mi West 6.9 mph 17.3 mph N/A   Unknown
2:57 PM 53.6 °F - 23.0 °F 30% 29.56 in 10.0 mi West 12.7 mph 17.3 mph N/A   Unknown
3:17 PM 55.4 °F - 23.0 °F 29% 29.53 in 10.0 mi WNW 4.6 mph 20.7 mph N/A   Unknown
3:37 PM 53.6 °F - 23.0 °F 30% 29.50 in 10.0 mi West 17.3 mph 39.1 mph N/A   Unknown
3:57 PM 53.6 °F - 23.0 °F 30% 29.49 in 10.0 mi West 35.7 mph 46.0 mph N/A   Unknown
4:17 PM 53.6 °F - 24.8 °F 33% 29.47 in 10.0 mi West 27.6 mph 48.3 mph N/A   Unknown
4:37 PM 51.8 °F - 23.0 °F 33% 29.45 in 10.0 mi West 39.1 mph 48.3 mph N/A   Unknown
4:57 PM 53.6 °F - 23.0 °F 30% 29.44 in 10.0 mi West 35.7 mph 64.4 mph N/A   Unknown
5:17 PM 53.6 °F - 23.0 °F 30% 29.44 in 10.0 mi West 26.5 mph 54.1 mph N/A   Unknown
5:37 PM 53.6 °F - 23.0 °F 30% 29.44 in 10.0 mi West 25.3 mph 52.9 mph N/A   Unknown
5:57 PM 53.6 °F - 23.0 °F 30% 29.42 in 10.0 mi West 36.8 mph 57.5 mph N/A   Unknown
6:17 PM 53.6 °F - 23.0 °F 30% 29.41 in 10.0 mi West 35.7 mph 58.7 mph N/A   Unknown
6:37 PM 53.6 °F - 23.0 °F 30% 29.42 in 10.0 mi West 39.1 mph 50.6 mph N/A   Unknown
6:57 PM 55.4 °F - 21.2 °F 26% 29.42 in 10.0 mi West 33.4 mph 51.8 mph N/A   Unknown
7:17 PM 55.4 °F - 21.2 °F 26% 29.40 in 10.0 mi West 28.8 mph 46.0 mph N/A   Unknown
7:37 PM 55.4 °F - 23.0 °F 29% 29.44 in 10.0 mi West 27.6 mph 47.2 mph N/A   Unknown
7:57 PM 53.6 °F - 23.0 °F 30% 29.44 in 10.0 mi West 33.4 mph 47.2 mph N/A   Unknown
8:17 PM 53.6 °F - 23.0 °F 30% 29.43 in 10.0 mi West 33.4 mph 48.3 mph N/A   Unknown
8:37 PM 51.8 °F - 23.0 °F 33% 29.42 in 10.0 mi West 23.0 mph 38.0 mph N/A   Unknown
8:57 PM 53.6 °F - 24.8 °F 33% 29.42 in 10.0 mi West 26.5 mph 43.7 mph N/A   Unknown
9:17 PM 51.8 °F - 24.8 °F 35% 29.43 in 10.0 mi West 25.3 mph 35.7 mph N/A   Unknown
9:37 PM 50.0 °F - 26.6 °F 40% 29.44 in 10.0 mi WNW 16.1 mph 26.5 mph N/A   Unknown
9:57 PM 51.8 °F - 24.8 °F 35% 29.45 in 10.0 mi NW 11.5 mph 24.2 mph N/A   Unknown
10:17 PM 50.0 °F - 26.6 °F 40% 29.46 in 10.0 mi WNW 12.7 mph 19.6 mph N/A   Unknown
10:37 PM 50.0 °F - 26.6 °F 40% 29.45 in 10.0 mi West 20.7 mph 28.8 mph N/A   Unknown
10:57 PM 50.0 °F - 28.4 °F 43% 29.46 in 10.0 mi West 24.2 mph 34.5 mph N/A   Unknown
11:17 PM 50.0 °F - 30.2 °F 47% 29.46 in 10.0 mi West 18.4 mph 26.5 mph N/A   Unknown
11:37 PM 48.2 °F - 30.2 °F 50% 29.47 in 10.0 mi West 18.4 mph 28.8 mph N/A   Unknown
11:57 PM 46.4 °F 39.2 °F 32.0 °F 57% 29.47 in 10.0 mi WSW 18.4 mph 31.1 mph N/A   Unknown